createdAt,value
2018-09-14T00:04:37.130Z,36.13
2018-09-14T00:09:34.080Z,35.23
2018-09-14T00:14:30.745Z,36.20
2018-09-14T00:19:27.694Z,39.50
2018-09-14T00:24:24.349Z,38.00
2018-09-14T00:29:21.316Z,38.83
2018-09-14T00:34:18.224Z,41.57
2018-09-14T00:39:15.136Z,38.37
2018-09-14T00:44:11.798Z,40.80
2018-09-14T00:49:08.651Z,42.77
2018-09-14T00:54:05.304Z,45.20
2018-09-14T00:59:02.427Z,43.73
2018-09-14T01:03:59.336Z,41.97
2018-09-14T01:08:56.623Z,43.93
2018-09-14T01:13:53.491Z,46.47
2018-09-14T01:18:50.147Z,42.43
2018-09-14T01:23:47.288Z,45.60
2018-09-14T01:28:43.948Z,43.10
2018-09-14T01:33:41.216Z,43.07
2018-09-14T01:38:38.017Z,39.37
2018-09-14T01:43:35.035Z,45.43
2018-09-14T01:48:31.840Z,43.73
2018-09-14T01:53:29.064Z,43.80
2018-09-14T01:58:25.724Z,43.87
2018-09-14T02:03:22.916Z,45.67
2018-09-14T02:08:19.758Z,49.43
2018-09-14T02:13:16.710Z,51.90
2018-09-14T02:18:13.388Z,49.60
2018-09-14T02:23:10.330Z,52.77
2018-09-14T02:28:07.009Z,56.57
2018-09-14T02:33:04.149Z,60.03
2018-09-14T02:38:00.807Z,59.13
2018-09-14T02:42:57.651Z,55.73
2018-09-14T02:47:54.312Z,59.07
2018-09-14T02:52:51.592Z,66.93
2018-09-14T02:57:48.234Z,66.13
2018-09-14T03:02:45.103Z,60.67
2018-09-14T03:07:42.530Z,62.07
2018-09-14T03:12:39.441Z,61.43
2018-09-14T03:17:36.164Z,60.47
2018-09-14T03:22:33.425Z,59.57
2018-09-14T03:27:30.173Z,59.70
2018-09-14T03:32:27.198Z,65.83
2018-09-14T03:37:23.971Z,66.63
2018-09-14T03:42:21.447Z,66.10
2018-09-14T03:47:18.215Z,64.27
2018-09-14T03:52:15.239Z,65.20
2018-09-14T03:57:12.084Z,69.87
2018-09-14T04:02:09.089Z,76.43
2018-09-14T04:07:06.054Z,71.73
2018-09-14T04:12:03.920Z,72.53
2018-09-14T04:17:00.700Z,64.73
2018-09-14T04:21:57.641Z,67.57
2018-09-14T04:26:54.305Z,73.63
2018-09-14T04:31:51.258Z,74.07
2018-09-14T04:36:47.993Z,69.57
2018-09-14T04:41:44.982Z,80.73
2018-09-14T04:46:42.256Z,78.57
2018-09-14T04:51:38.931Z,69.97
2018-09-14T04:56:36.064Z,72.77
2018-09-14T05:01:33.008Z,79.97
2018-09-14T05:06:29.997Z,74.70
2018-09-14T05:11:27.202Z,73.50
2018-09-14T05:16:24.119Z,77.50
2018-09-14T05:21:21.347Z,70.83
2018-09-14T05:26:18.102Z,76.40
2018-09-14T05:31:15.335Z,78.67
2018-09-14T05:36:12.062Z,79.23
2018-09-14T05:41:09.057Z,76.63
2018-09-14T05:46:05.759Z,71.93
2018-09-14T05:51:02.979Z,75.60
2018-09-14T05:55:59.700Z,68.20
2018-09-14T06:00:57.244Z,71.30
2018-09-14T06:05:54.703Z,71.83
2018-09-14T06:10:51.758Z,61.33
2018-09-14T06:15:48.422Z,64.70
2018-09-14T06:20:45.365Z,70.93
2018-09-14T06:25:42.164Z,61.00
2018-09-14T06:30:39.284Z,66.30
2018-09-14T06:35:36.050Z,60.43
2018-09-14T06:40:33.001Z,58.43
2018-09-14T06:45:29.781Z,64.40
2018-09-14T06:50:26.629Z,53.27
2018-09-14T06:55:23.350Z,57.90
2018-09-14T07:00:20.491Z,56.50
2018-09-14T07:05:17.306Z,56.23
2018-09-14T07:10:14.270Z,51.87
2018-09-14T07:15:10.953Z,52.13
2018-09-14T07:20:09.135Z,49.30
2018-09-14T07:25:06.085Z,47.67
2018-09-14T07:30:03.370Z,48.87
2018-09-14T07:35:00.112Z,43.37
2018-09-14T07:39:57.188Z,41.80
2018-09-14T07:44:53.960Z,48.05
2018-09-14T07:49:50.910Z,48.08
2018-09-14T07:54:47.648Z,35.33
2018-09-14T07:59:44.684Z,36.68
2018-09-14T08:04:41.466Z,33.55
2018-09-14T08:09:38.747Z,34.73
2018-09-14T08:14:35.909Z,25.95
2018-09-14T08:19:32.683Z,30.10
2018-09-14T08:24:29.630Z,29.45
2018-09-14T08:29:27.048Z,24.90
2018-09-14T08:34:24.079Z,26.45
2018-09-14T08:39:20.895Z,27.42
2018-09-14T08:44:17.889Z,28.12
2018-09-14T08:49:14.612Z,25.92
2018-09-14T08:54:11.614Z,24.67
2018-09-14T08:59:08.708Z,23.85
2018-09-14T09:04:05.449Z,26.90
2018-09-14T09:09:02.524Z,29.55
2018-09-14T09:13:59.594Z,26.45
2018-09-14T09:18:56.847Z,32.15
2018-09-14T09:23:53.619Z,27.40
2018-09-14T09:28:50.562Z,26.60
2018-09-14T09:33:47.364Z,24.32
2018-09-14T09:38:44.373Z,20.90
2018-09-14T09:43:41.206Z,22.30
2018-09-14T09:48:38.101Z,21.85
2018-09-14T09:53:34.926Z,21.70
2018-09-14T09:58:32.140Z,20.45
2018-09-14T10:03:35.287Z,17.17
2018-09-14T10:08:31.940Z,15.58
2018-09-14T10:13:28.939Z,16.30
2018-09-14T10:18:25.672Z,14.87
2018-09-14T10:23:22.763Z,18.62
2018-09-14T10:28:19.525Z,15.83
2018-09-14T10:33:16.493Z,16.32
2018-09-14T10:38:13.226Z,17.55
2018-09-14T10:43:10.438Z,16.35
2018-09-14T10:48:07.207Z,17.40
2018-09-14T10:53:04.444Z,15.40
2018-09-14T10:58:01.335Z,14.93
2018-09-14T11:02:58.786Z,15.30
2018-09-14T11:07:56.249Z,15.08
2018-09-14T11:12:52.961Z,14.65
2018-09-14T11:17:49.835Z,14.55
2018-09-14T11:22:46.576Z,13.48
2018-09-14T11:27:43.497Z,12.18
2018-09-14T11:32:40.220Z,10.95
2018-09-14T11:37:37.260Z,11.83
2018-09-14T11:42:33.975Z,11.38
2018-09-14T11:47:31.345Z,15.30
2018-09-14T11:52:28.082Z,12.58
2018-09-14T11:57:26.906Z,12.60
2018-09-14T12:02:24.708Z,12.13
2018-09-14T12:07:22.148Z,12.85
2018-09-14T12:12:18.908Z,13.75
2018-09-14T12:17:16.080Z,13.80
2018-09-14T12:22:12.792Z,15.47
2018-09-14T12:27:10.417Z,11.55
2018-09-14T12:32:07.345Z,11.70
2018-09-14T12:37:04.359Z,12.33
2018-09-14T12:42:01.302Z,10.82
2018-09-14T12:46:58.078Z,11.05
2018-09-14T12:51:55.030Z,10.50
2018-09-14T12:56:51.823Z,10.23
2018-09-14T13:01:48.970Z,8.73
2018-09-14T13:06:45.754Z,8.80
2018-09-14T13:11:42.663Z,9.30
2018-09-14T13:16:39.398Z,11.38
2018-09-14T13:21:36.284Z,10.08
2018-09-14T13:26:33.353Z,12.15
2018-09-14T13:31:32.278Z,11.63
2018-09-14T13:36:29.040Z,11.90
2018-09-14T13:41:26.306Z,10.32
2018-09-14T13:46:23.081Z,10.93
2018-09-14T13:51:19.980Z,10.50
2018-09-14T13:56:17.181Z,9.13
2018-09-14T14:01:14.011Z,8.75
2018-09-14T14:06:11.002Z,11.08
2018-09-14T14:11:07.812Z,8.15
2018-09-14T14:16:04.924Z,10.20
2018-09-14T14:21:01.938Z,9.50
2018-09-14T14:25:58.875Z,11.43
2018-09-14T14:30:56.076Z,10.43
2018-09-14T14:35:53.806Z,12.65
2018-09-14T14:40:50.880Z,10.32
2018-09-14T14:45:47.692Z,9.08
2018-09-14T14:50:44.901Z,9.55
2018-09-14T14:55:41.706Z,9.68
2018-09-14T15:00:38.603Z,9.85
2018-09-14T15:05:35.667Z,8.85
2018-09-14T15:10:32.410Z,11.88
2018-09-14T15:15:29.399Z,9.85
2018-09-14T15:20:26.157Z,10.20
2018-09-14T15:25:23.122Z,8.65
2018-09-14T15:30:20.275Z,8.05
2018-09-14T15:35:17.249Z,10.43
2018-09-14T15:40:14.026Z,9.60
2018-09-14T15:45:10.964Z,9.85
2018-09-14T15:50:07.720Z,10.75
2018-09-14T15:55:04.885Z,10.63
2018-09-14T16:00:01.865Z,10.20
2018-09-14T16:04:58.831Z,10.40
2018-09-14T16:09:55.569Z,20.40
2018-09-14T16:14:52.546Z,9.88
2018-09-14T16:19:49.294Z,8.70
2018-09-14T16:24:46.559Z,10.15
2018-09-14T16:29:43.277Z,9.58
2018-09-14T16:34:41.092Z,13.90
2018-09-14T16:39:37.896Z,9.63
2018-09-14T16:44:35.124Z,11.93
2018-09-14T16:49:32.052Z,9.65
2018-09-14T16:54:29.057Z,12.05
2018-09-14T16:59:26.022Z,10.65
2018-09-14T17:04:23.086Z,14.50
2018-09-14T17:09:19.867Z,11.48
2018-09-14T17:14:16.923Z,11.30
2018-09-14T17:19:13.858Z,10.70
2018-09-14T17:24:10.589Z,9.73
2018-09-14T17:29:07.738Z,13.25
2018-09-14T17:34:04.658Z,11.57
2018-09-14T17:39:01.404Z,9.98
2018-09-14T17:44:01.880Z,12.68
2018-09-14T17:48:55.219Z,9.95
2018-09-14T17:53:52.219Z,9.98
2018-09-14T17:58:48.963Z,13.62
2018-09-14T18:03:46.044Z,11.75
2018-09-14T18:08:42.817Z,11.08
2018-09-14T18:13:39.841Z,9.95
2018-09-14T18:18:36.551Z,10.10
2018-09-14T18:23:33.886Z,11.65
2018-09-14T18:28:30.631Z,11.40
2018-09-14T18:33:27.600Z,10.43
2018-09-14T18:38:24.473Z,10.10
2018-09-14T18:43:21.425Z,11.43
2018-09-14T18:48:18.241Z,10.10
2018-09-14T18:53:15.266Z,10.98
2018-09-14T18:58:12.462Z,12.20
2018-09-14T19:03:09.793Z,12.13
2018-09-14T19:08:06.726Z,11.10
2018-09-14T19:13:03.728Z,11.45
2018-09-14T19:18:00.470Z,12.58
2018-09-14T19:22:57.463Z,14.70
2018-09-14T19:27:54.504Z,12.97
2018-09-14T19:32:51.350Z,14.28
2018-09-14T19:37:48.509Z,12.93
2018-09-14T19:42:45.329Z,13.00
2018-09-14T19:47:42.486Z,11.95
2018-09-14T19:52:39.276Z,15.23
2018-09-14T19:57:36.424Z,17.23
2018-09-14T20:02:33.089Z,13.27
2018-09-14T20:07:29.953Z,16.90
2018-09-14T20:12:26.807Z,14.13
2018-09-14T20:17:24.198Z,14.90
2018-09-14T20:22:20.925Z,13.07
2018-09-14T20:27:18.030Z,12.30
2018-09-14T20:32:14.803Z,12.43
2018-09-14T20:37:11.765Z,12.87
2018-09-14T20:42:08.477Z,11.95
2018-09-14T20:47:05.747Z,12.55
2018-09-14T20:52:02.687Z,13.43
2018-09-14T20:56:59.467Z,13.05
2018-09-14T21:01:56.225Z,14.37
2018-09-14T21:06:53.292Z,14.53
2018-09-14T21:11:50.111Z,14.10
2018-09-14T21:16:48.269Z,11.67
2018-09-14T21:21:45.007Z,14.47
2018-09-14T21:26:42.185Z,16.43
2018-09-14T21:31:38.941Z,13.37
2018-09-14T21:36:35.913Z,14.03
2018-09-14T21:41:32.674Z,15.33
2018-09-14T21:46:29.850Z,13.37
2018-09-14T21:51:26.745Z,19.87
2018-09-14T21:56:24.669Z,20.53
2018-09-14T22:01:27.181Z,22.70
2018-09-14T22:06:24.047Z,14.63
2018-09-14T22:11:21.201Z,19.43
2018-09-14T22:16:18.120Z,13.47
2018-09-14T22:21:16.362Z,14.43
2018-09-14T22:26:13.121Z,14.33
2018-09-14T22:31:10.097Z,16.33
2018-09-14T22:36:06.845Z,14.60
2018-09-14T22:41:04.099Z,19.53
2018-09-14T22:46:00.798Z,16.27
2018-09-14T22:50:57.820Z,15.90
2018-09-14T22:55:54.512Z,16.10
2018-09-14T23:00:57.159Z,18.93
2018-09-14T23:05:53.914Z,15.07
2018-09-14T23:10:51.087Z,14.80
2018-09-14T23:15:57.580Z,17.03
2018-09-14T23:20:54.549Z,18.27
2018-09-14T23:25:53.775Z,15.47
2018-09-14T23:30:51.007Z,14.20
2018-09-14T23:35:47.728Z,14.53
2018-09-14T23:40:44.648Z,17.33
2018-09-14T23:45:41.382Z,17.50
2018-09-14T23:50:38.698Z,14.50
2018-09-14T23:55:35.431Z,14.30
